Time;durP1;ratioP1;P1;durP2;ratioP2;P2;SDS_P1;SDS_P2;PMS_P1;PMS_P2;Temp;Humidity;BMP_temperature;BMP_pressure;BME280_temperature;BME280_humidity;BME280_pressure;Samples;Min_cycle;Max_cycle;Signal;HPM_P1;HPM_P2
2022/06/12 00:00:27;;;;;;;2.88;0.98;;;24.40;39.60;;;;;;5117102;28;20030;-40
2022/06/12 00:02:53;;;;;;;2.17;0.90;;;24.40;39.60;;;;;;5117652;28;20039;-41
2022/06/12 00:05:21;;;;;;;2.03;0.80;;;24.40;39.60;;;;;;5117403;28;20089;-41
2022/06/12 00:07:47;;;;;;;2.65;1.00;;;24.40;39.60;;;;;;5115790;28;20019;-40
2022/06/12 00:10:13;;;;;;;2.35;0.70;;;24.40;39.50;;;;;;5116066;28;20493;-40
2022/06/12 00:12:40;;;;;;;2.28;0.82;;;24.40;39.50;;;;;;5115977;28;20832;-42
2022/06/12 00:15:06;;;;;;;1.90;0.80;;;24.40;39.60;;;;;;5117092;28;20027;-40
2022/06/12 00:17:32;;;;;;;2.75;0.85;;;24.30;39.50;;;;;;5082667;28;20478;-40
2022/06/12 00:19:58;;;;;;;1.95;0.80;;;24.30;39.50;;;;;;5118692;28;20023;-40
2022/06/12 00:22:24;;;;;;;1.63;0.70;;;24.30;39.40;;;;;;5116376;28;20062;-41
2022/06/12 00:24:51;;;;;;;2.65;1.13;;;24.40;39.50;;;;;;5115768;28;20015;-39
2022/06/12 00:27:17;;;;;;;2.33;0.90;;;24.30;39.50;;;;;;5113792;28;20012;-39
2022/06/12 00:29:47;;;;;;;3.38;0.70;;;24.30;39.50;;;;;;5113957;28;20019;-41
2022/06/12 00:32:14;;;;;;;1.77;0.70;;;24.30;39.50;;;;;;5114304;28;20016;-42
2022/06/12 00:35:10;;;;;;;2.83;0.80;;;24.30;39.50;;;;;;5113854;28;20564;-39
2022/06/12 00:37:36;;;;;;;1.92;0.80;;;24.30;39.50;;;;;;5112521;28;20087;-39
2022/06/12 00:40:03;;;;;;;1.77;0.70;;;24.30;39.60;;;;;;5113552;28;20040;-40
2022/06/12 00:42:37;;;;;;;3.45;0.80;;;24.30;39.60;;;;;;5116130;28;20016;-40
2022/06/12 00:45:36;;;;;;;1.70;0.80;;;24.30;39.50;;;;;;5115267;28;20023;-39
2022/06/12 00:48:07;;;;;;;3.00;1.00;;;24.30;39.60;;;;;;5107827;28;20064;-40
2022/06/12 00:50:35;;;;;;;2.28;0.80;;;24.20;39.60;;;;;;5115487;28;20022;-39
2022/06/12 00:53:01;;;;;;;2.67;1.15;;;24.20;39.50;;;;;;5114812;28;20035;-43
2022/06/12 00:55:37;;;;;;;3.38;0.90;;;24.20;39.60;;;;;;5113574;28;20471;-39
2022/06/12 00:58:07;;;;;;;1.90;0.70;;;24.20;39.50;;;;;;5113640;28;20525;-39
2022/06/12 01:00:33;;;;;;;2.00;0.70;;;24.20;39.50;;;;;;5112193;28;20015;-40
2022/06/12 01:02:59;;;;;;;2.78;0.95;;;24.20;39.50;;;;;;5114057;28;20497;-39
2022/06/12 01:08:09;;;;;;;2.50;0.80;;;24.30;39.60;;;;;;5117937;28;20026;-39
2022/06/12 01:10:37;;;;;;;2.00;0.70;;;24.30;39.50;;;;;;5117300;28;20016;-39
2022/06/12 01:13:17;;;;;;;3.05;1.00;;;24.20;39.50;;;;;;5099336;28;20004;-39
2022/06/12 01:15:48;;;;;;;1.98;0.80;;;24.20;39.50;;;;;;5100148;28;20016;-39
2022/06/12 01:18:17;;;;;;;2.80;0.90;;;24.20;39.60;;;;;;5116987;28;20004;-40
2022/06/12 01:21:22;;;;;;;2.38;0.95;;;24.20;39.60;;;;;;5118008;28;20051;-39
2022/06/12 01:23:54;;;;;;;1.88;0.80;;;24.20;39.60;;;;;;5115529;28;20047;-42
2022/06/12 01:26:41;;;;;;;1.88;0.77;;;24.20;39.60;;;;;;5116938;28;20538;-38
2022/06/12 01:29:19;;;;;;;2.28;0.98;;;24.20;39.70;;;;;;5116842;28;20023;-39
2022/06/12 01:31:52;;;;;;;2.65;0.82;;;24.20;39.60;;;;;;5117199;28;20066;-39
2022/06/12 01:34:26;;;;;;;2.20;0.73;;;24.20;39.70;;;;;;5117697;28;20051;-43
2022/06/12 01:36:55;;;;;;;2.38;0.80;;;24.20;39.70;;;;;;5115965;28;20011;-39
2022/06/12 01:40:01;;;;;;;2.85;0.80;;;24.20;39.70;;;;;;5117356;28;20482;-38
2022/06/12 01:42:32;;;;;;;2.13;0.80;;;24.20;39.70;;;;;;5119013;28;20004;-42
2022/06/12 01:45:17;;;;;;;2.13;0.80;;;24.10;39.70;;;;;;5119548;28;20142;-42
2022/06/12 01:48:15;;;;;;;2.17;0.70;;;24.20;39.80;;;;;;5117770;28;20065;-40
2022/06/12 01:50:44;;;;;;;2.58;0.80;;;24.20;39.80;;;;;;5101587;28;20066;-42
2022/06/12 01:53:19;;;;;;;3.42;1.13;;;24.20;39.80;;;;;;5099338;28;20100;-39
2022/06/12 01:55:53;;;;;;;3.85;1.00;;;24.10;39.80;;;;;;5117035;28;20019;-39
2022/06/12 01:58:29;;;;;;;1.75;0.80;;;24.20;39.90;;;;;;5098622;28;20023;-39
2022/06/12 02:01:10;;;;;;;2.60;0.90;;;24.10;39.90;;;;;;5115063;28;20093;-39
2022/06/12 02:03:55;;;;;;;2.72;0.95;;;24.10;39.90;;;;;;5115669;28;20011;-38
2022/06/12 02:06:41;;;;;;;3.90;1.00;;;24.10;39.90;;;;;;5115142;28;20031;-38
2022/06/12 02:09:19;;;;;;;1.90;0.77;;;24.10;40.00;;;;;;5115035;28;20018;-39
2022/06/12 02:14:41;;;;;;;2.08;1.08;;;24.10;40.00;;;;;;5115166;28;20536;-38
2022/06/12 02:17:08;;;;;;;1.48;0.80;;;24.10;40.00;;;;;;5115570;28;20057;-39
2022/06/12 02:19:37;;;;;;;1.92;0.90;;;24.10;40.00;;;;;;5115319;28;20519;-39
2022/06/12 02:22:07;;;;;;;3.00;0.93;;;24.10;40.00;;;;;;5115189;28;20031;-39
2022/06/12 02:24:39;;;;;;;3.03;1.00;;;24.10;40.10;;;;;;5116158;28;20595;-39
2022/06/12 02:27:31;;;;;;;2.67;1.00;;;24.10;40.10;;;;;;5098267;28;20016;-39
2022/06/12 02:29:59;;;;;;;5.10;1.10;;;24.10;40.20;;;;;;5115119;28;20362;-38
2022/06/12 02:32:31;;;;;;;3.25;1.10;;;24.10;40.20;;;;;;5115444;28;20067;-39
2022/06/12 02:35:26;;;;;;;2.47;0.93;;;24.10;40.20;;;;;;5116481;28;20046;-38
2022/06/12 02:37:58;;;;;;;1.98;0.90;;;24.10;40.20;;;;;;5110022;28;20028;-38
2022/06/12 02:40:30;;;;;;;2.90;0.90;;;24.10;40.20;;;;;;5098867;28;20011;-40
2022/06/12 02:42:57;;;;;;;2.97;0.95;;;24.00;40.20;;;;;;5115885;28;20015;-40
2022/06/12 02:45:53;;;;;;;4.30;0.88;;;24.00;40.20;;;;;;5117363;28;20012;-39
2022/06/12 02:48:19;;;;;;;2.67;0.90;;;24.00;40.30;;;;;;5116207;28;20026;-39
2022/06/12 02:51:02;;;;;;;3.28;1.10;;;24.10;40.30;;;;;;5116456;28;20466;-43
2022/06/12 02:53:35;;;;;;;2.67;1.00;;;24.00;40.30;;;;;;5100358;28;20031;-41
2022/06/12 02:56:16;;;;;;;3.25;0.80;;;24.10;40.40;;;;;;5114297;28;20011;-41
2022/06/12 02:58:55;;;;;;;2.88;0.95;;;24.00;40.40;;;;;;5114248;28;20012;-41
2022/06/12 03:01:29;;;;;;;4.10;1.20;;;24.00;40.40;;;;;;5097149;28;20016;-40
2022/06/12 03:03:58;;;;;;;2.80;1.00;;;24.00;40.40;;;;;;5114058;28;20015;-40
2022/06/12 03:06:26;;;;;;;2.50;0.90;;;24.00;41.00;;;;;;5097243;28;20102;-40
2022/06/12 03:08:52;;;;;;;2.88;0.90;;;24.00;40.50;;;;;;5115222;27;20096;-41
2022/06/12 03:11:40;;;;;;;3.22;0.90;;;24.00;40.50;;;;;;5116283;28;20023;-42
2022/06/12 03:14:09;;;;;;;2.72;1.10;;;24.00;40.50;;;;;;5116820;28;20023;-41
2022/06/12 03:16:36;;;;;;;3.25;0.90;;;24.00;40.50;;;;;;5116270;28;20035;-41
2022/06/12 03:19:09;;;;;;;2.40;0.80;;;24.00;40.50;;;;;;5117308;28;20007;-41
2022/06/12 03:21:39;;;;;;;2.35;0.85;;;24.00;40.50;;;;;;5116579;28;20039;-40
2022/06/12 03:24:04;;;;;;;;;;;23.90;40.50;;;;;;5117497;28;20110;-41
2022/06/12 03:26:33;;;;;;;2.83;0.98;;;24.00;40.60;;;;;;5115449;28;19958;-41
2022/06/12 03:29:24;;;;;;;4.10;1.20;;;24.00;40.70;;;;;;5115611;28;20099;-40
2022/06/12 03:32:02;;;;;;;2.45;1.00;;;23.90;40.70;;;;;;5115182;28;20095;-39
2022/06/12 03:34:31;;;;;;;3.33;1.17;;;24.00;40.70;;;;;;5079585;28;20119;-39
2022/06/12 03:37:03;;;;;;;2.20;1.00;;;24.00;40.70;;;;;;5114481;28;20037;-39
2022/06/12 03:39:42;;;;;;;2.85;1.00;;;24.00;40.80;;;;;;5114624;28;20072;-41
2022/06/12 03:42:14;;;;;;;3.53;0.98;;;23.90;40.70;;;;;;5113791;28;20034;-41
2022/06/12 03:44:39;;;;;;;3.45;0.95;;;23.90;40.70;;;;;;5114495;28;20023;-39
2022/06/12 03:47:13;;;;;;;2.83;1.13;;;24.00;40.80;;;;;;5115053;28;20019;-42
2022/06/12 03:49:59;;;;;;;3.63;0.80;;;23.90;40.80;;;;;;5115294;28;20098;-40
2022/06/12 03:52:54;;;;;;;2.63;1.00;;;24.00;40.80;;;;;;5115205;28;20480;-41
2022/06/12 03:57:50;;;;;;;4.45;1.10;;;24.00;40.80;;;;;;5114495;28;20019;-44
2022/06/12 03:58:12;;;;;;;3.58;1.30;;;23.90;40.70;;;;;;5114280;28;20116;-40
2022/06/12 04:00:40;;;;;;;2.97;1.52;;;23.90;40.70;;;;;;5096969;28;20049;-41
2022/06/12 04:03:33;;;;;;;2.90;0.95;;;24.00;41.30;;;;;;5114472;28;20016;-41
2022/06/12 04:06:04;;;;;;;4.63;1.15;;;24.00;40.80;;;;;;5105161;28;20040;-40
2022/06/12 04:08:35;;;;;;;2.45;0.90;;;24.00;40.70;;;;;;5097245;28;20011;-40
2022/06/12 04:11:00;;;;;;;2.88;1.25;;;24.00;40.60;;;;;;5115593;28;20051;-41
2022/06/12 04:13:26;;;;;;;3.65;1.30;;;24.10;40.60;;;;;;5114361;28;20547;-41
2022/06/12 04:15:55;;;;;;;3.65;1.00;;;24.10;40.60;;;;;;5115621;28;20022;-42
2022/06/12 04:18:24;;;;;;;4.70;1.33;;;24.10;40.50;;;;;;5115525;28;20067;-41
2022/06/12 04:21:00;;;;;;;2.78;1.15;;;24.10;40.40;;;;;;5114641;28;20014;-41
2022/06/12 04:23:42;;;;;;;3.80;1.38;;;24.20;40.40;;;;;;5115617;28;20118;-42
2022/06/12 04:26:30;;;;;;;4.00;1.00;;;24.20;40.30;;;;;;5115314;28;20012;-42
2022/06/12 04:28:59;;;;;;;2.13;0.85;;;24.30;40.30;;;;;;5099781;28;20065;-44
2022/06/12 04:31:27;;;;;;;3.27;1.03;;;24.30;40.20;;;;;;5117012;28;20085;-44
2022/06/12 04:34:00;;;;;;;2.53;1.00;;;24.40;40.30;;;;;;5115579;28;20031;-41
2022/06/12 04:36:32;;;;;;;3.38;1.05;;;24.40;40.10;;;;;;5097323;28;20015;-41
2022/06/12 04:38:58;;;;;;;2.65;1.40;;;24.50;40.10;;;;;;5119310;28;20012;-41
2022/06/12 04:41:26;;;;;;;3.05;1.10;;;24.60;40.10;;;;;;5123304;28;20026;-42
2022/06/12 04:43:52;;;;;;;2.60;1.00;;;24.60;39.90;;;;;;5123653;27;20015;-41
2022/06/12 04:46:18;;;;;;;2.63;1.08;;;24.70;39.80;;;;;;5123898;27;20020;-41
2022/06/12 04:48:45;;;;;;;2.92;1.33;;;24.80;39.60;;;;;;5121379;28;20016;-41
2022/06/12 04:51:11;;;;;;;2.83;1.10;;;24.90;39.50;;;;;;5120741;28;20035;-40
2022/06/12 04:53:38;;;;;;;2.75;1.13;;;25.00;39.30;;;;;;5119933;28;20030;-43
2022/06/12 04:56:04;;;;;;;3.45;1.10;;;25.00;39.10;;;;;;5120823;27;20091;-41
2022/06/12 04:58:30;;;;;;;3.42;1.10;;;25.20;39.00;;;;;;5120734;27;20455;-42
2022/06/12 05:00:56;;;;;;;2.08;0.88;;;25.20;38.90;;;;;;5120745;27;20095;-41
2022/06/12 05:03:22;;;;;;;2.10;0.90;;;25.30;38.70;;;;;;5102619;28;20014;-42
2022/06/12 05:05:48;;;;;;;3.53;1.08;;;25.40;38.50;;;;;;5120887;27;20377;-41
2022/06/12 05:08:14;;;;;;;4.13;1.05;;;25.40;38.40;;;;;;5119259;28;20023;-40
2022/06/12 05:10:40;;;;;;;3.35;1.00;;;25.40;38.30;;;;;;5121651;27;20023;-42
2022/06/12 05:13:06;;;;;;;3.60;1.15;;;25.40;38.30;;;;;;5120442;28;20438;-41
2022/06/12 05:15:32;;;;;;;2.58;1.00;;;25.40;38.40;;;;;;5120446;28;20375;-44
2022/06/12 05:17:58;;;;;;;2.38;0.90;;;25.30;38.60;;;;;;5120390;28;20034;-41
2022/06/12 05:20:26;;;;;;;3.72;1.55;;;25.20;38.70;;;;;;5123007;27;20012;-46
2022/06/12 05:22:52;;;;;;;3.25;1.10;;;25.10;38.80;;;;;;5122905;27;20042;-44
2022/06/12 05:25:18;;;;;;;2.78;1.10;;;25.10;39.00;;;;;;5121977;27;20489;-43
2022/06/12 05:27:45;;;;;;;3.78;1.60;;;25.00;39.20;;;;;;5121372;28;20015;-45
2022/06/12 05:30:21;;;;;;;2.83;1.05;;;25.00;39.30;;;;;;5123706;28;20011;-42
2022/06/12 05:32:47;;;;;;;3.53;1.17;;;24.90;39.40;;;;;;5106361;28;20470;-41
2022/06/12 05:35:14;;;;;;;3.53;1.13;;;24.90;39.50;;;;;;5123259;27;20068;-41
2022/06/12 05:37:39;;;;;;;3.38;1.17;;;24.80;39.50;;;;;;5105238;28;20117;-42
2022/06/12 05:40:10;;;;;;;3.30;1.27;;;24.90;39.40;;;;;;5125111;27;20020;-44
2022/06/12 05:42:37;;;;;;;2.72;0.98;;;24.90;39.50;;;;;;5126065;27;20024;-44
2022/06/12 05:45:05;;;;;;;3.47;1.20;;;24.90;39.40;;;;;;5124656;27;20007;-44
2022/06/12 05:47:31;;;;;;;5.03;1.33;;;25.00;39.30;;;;;;5125049;28;20038;-45
2022/06/12 05:49:57;;;;;;;2.80;1.10;;;25.00;39.40;;;;;;5124007;28;20016;-40
2022/06/12 05:52:23;;;;;;;4.50;1.30;;;25.10;39.70;;;;;;5121386;28;20023;-50
2022/06/12 05:54:48;;;;;;;4.07;1.30;;;25.10;39.20;;;;;;5118074;28;20115;-44
2022/06/12 05:57:14;;;;;;;3.40;1.10;;;25.10;39.10;;;;;;5116951;28;20020;-44
2022/06/12 05:59:40;;;;;;;4.18;1.38;;;25.10;39.20;;;;;;5118740;28;20016;-43
2022/06/12 06:02:06;;;;;;;2.70;1.17;;;25.20;39.10;;;;;;5119731;28;20045;-41
2022/06/12 06:04:33;;;;;;;2.60;1.15;;;25.20;39.20;;;;;;5118868;28;20019;-44
2022/06/12 06:06:59;;;;;;;3.97;1.20;;;25.20;39.00;;;;;;5118736;28;20016;-42
2022/06/12 06:09:25;;;;;;;3.28;1.25;;;25.30;39.20;;;;;;5116603;28;20027;-41
2022/06/12 06:11:51;;;;;;;3.90;1.15;;;25.40;38.80;;;;;;5117221;28;20024;-41
2022/06/12 06:14:17;;;;;;;4.00;1.20;;;25.50;38.70;;;;;;5099484;28;20065;-42
2022/06/12 06:16:42;;;;;;;3.60;1.48;;;25.70;38.60;;;;;;5118280;28;20509;-42
2022/06/12 06:19:09;;;;;;;4.25;1.48;;;25.70;38.30;;;;;;5119241;28;20019;-40
2022/06/12 06:21:37;;;;;;;4.45;1.55;;;25.80;38.40;;;;;;5119505;28;20012;-42
2022/06/12 06:24:03;;;;;;;3.45;1.17;;;25.80;38.30;;;;;;5119461;28;20131;-45
2022/06/12 06:26:30;;;;;;;3.25;1.10;;;25.80;38.40;;;;;;5121157;28;20069;-43
2022/06/12 06:28:57;;;;;;;4.47;1.30;;;25.80;38.40;;;;;;5119727;28;20028;-43
2022/06/12 06:31:23;;;;;;;3.50;1.20;;;25.80;38.40;;;;;;5119083;28;20016;-44
2022/06/12 06:33:49;;;;;;;5.55;1.40;;;25.70;38.50;;;;;;5119237;28;20512;-48
2022/06/12 06:36:15;;;;;;;3.15;1.10;;;25.70;38.50;;;;;;5120269;28;20019;-44
2022/06/12 06:38:41;;;;;;;4.40;1.40;;;25.70;38.60;;;;;;5103816;28;20024;-42
2022/06/12 06:41:07;;;;;;;4.72;1.33;;;25.70;38.60;;;;;;5119228;28;20007;-45
2022/06/12 06:46:22;;;;;;;4.07;1.40;;;25.80;38.50;;;;;;5098066;28;20043;-44
2022/06/12 06:48:49;;;;;;;2.78;1.02;;;25.80;38.50;;;;;;5117378;28;20015;-45
2022/06/12 06:51:14;;;;;;;3.83;1.25;;;25.80;38.60;;;;;;5118736;28;20015;-46
2022/06/12 06:53:40;;;;;;;4.05;1.50;;;25.80;38.70;;;;;;5117955;28;20571;-45
2022/06/12 06:56:06;;;;;;;3.95;1.38;;;25.80;38.80;;;;;;5117117;28;20359;-42
2022/06/12 06:58:32;;;;;;;3.65;1.20;;;25.80;39.00;;;;;;5115849;28;20018;-45
2022/06/12 07:00:58;;;;;;;5.20;1.30;;;25.80;38.80;;;;;;5116625;28;20061;-41
2022/06/12 07:03:23;;;;;;;4.03;1.40;;;26.00;38.90;;;;;;5116998;28;20021;-44
2022/06/12 07:05:51;;;;;;;3.55;1.20;;;26.20;38.50;;;;;;5118159;28;20015;-43
2022/06/12 07:08:17;;;;;;;3.67;1.33;;;26.40;38.10;;;;;;5116163;28;20030;-41
2022/06/12 07:10:43;;;;;;;4.22;1.45;;;26.70;38.20;;;;;;5117053;28;20463;-39
2022/06/12 07:13:09;;;;;;;5.53;1.77;;;27.00;37.30;;;;;;5116192;28;20095;-39
2022/06/12 07:15:36;;;;;;;3.88;1.20;;;27.10;37.00;;;;;;5098260;28;20086;-39
2022/06/12 07:18:02;;;;;;;4.05;1.52;;;27.30;36.70;;;;;;5116259;28;20521;-39
2022/06/12 07:20:30;;;;;;;3.78;1.20;;;27.50;36.50;;;;;;5116794;28;20016;-40
2022/06/12 07:22:57;;;;;;;4.05;1.30;;;27.60;36.30;;;;;;5116147;28;20065;-40
2022/06/12 07:25:24;;;;;;;5.90;1.40;;;27.70;36.40;;;;;;5116111;28;20153;-41
2022/06/12 07:27:50;;;;;;;4.80;1.67;;;27.80;36.00;;;;;;5116956;28;20016;-41
2022/06/12 07:30:17;;;;;;;5.85;1.50;;;27.90;35.80;;;;;;5116854;28;20008;-40
2022/06/12 07:32:43;;;;;;;5.00;1.48;;;28.00;35.80;;;;;;5116230;28;20014;-45
2022/06/12 07:35:10;;;;;;;5.40;1.50;;;28.10;35.70;;;;;;5116020;28;20106;-43
2022/06/12 07:37:35;;;;;;;3.22;1.35;;;28.20;35.60;;;;;;5115294;28;20004;-41
2022/06/12 07:40:03;;;;;;;6.13;1.65;;;28.40;35.50;;;;;;5115594;28;20073;-41
2022/06/12 07:42:29;;;;;;;4.72;1.48;;;28.50;35.40;;;;;;5114059;28;20058;-41
2022/06/12 07:44:55;;;;;;;5.90;1.40;;;28.60;35.20;;;;;;5080238;28;20486;-41
2022/06/12 07:47:20;;;;;;;3.95;1.30;;;28.70;35.20;;;;;;5097517;28;20024;-40
2022/06/12 07:49:46;;;;;;;4.47;1.52;;;28.70;35.00;;;;;;5097644;28;20016;-42
2022/06/12 07:52:12;;;;;;;4.93;1.38;;;28.80;34.90;;;;;;5113748;28;20024;-42
2022/06/12 07:54:38;;;;;;;3.17;1.55;;;28.90;34.90;;;;;;5115017;28;20019;-42
2022/06/12 07:57:04;;;;;;;3.83;1.38;;;29.00;34.80;;;;;;5114636;28;20377;-41
2022/06/12 07:59:30;;;;;;;3.72;1.50;;;29.00;34.80;;;;;;5114937;28;20015;-43
2022/06/12 08:01:56;;;;;;;5.05;1.60;;;29.10;34.70;;;;;;5115553;28;20019;-41
2022/06/12 08:04:22;;;;;;;4.97;1.42;;;29.10;34.70;;;;;;5116017;28;20385;-42
2022/06/12 08:06:49;;;;;;;3.67;1.58;;;29.20;34.60;;;;;;5115429;28;20015;-42
2022/06/12 08:09:15;;;;;;;3.22;1.52;;;29.20;34.60;;;;;;5097433;28;20527;-41
2022/06/12 08:11:41;;;;;;;2.67;1.45;;;29.30;34.60;;;;;;5098409;28;20016;-43
2022/06/12 08:14:07;;;;;;;4.30;1.30;;;29.30;34.90;;;;;;5113905;28;20111;-42
2022/06/12 08:16:33;;;;;;;4.93;1.52;;;29.20;34.70;;;;;;5116081;28;20490;-44
2022/06/12 08:19:00;;;;;;;3.95;1.45;;;29.20;34.80;;;;;;5115740;28;20019;-43
2022/06/12 08:21:25;;;;;;;4.38;1.52;;;29.20;35.10;;;;;;5115176;28;20011;-41
2022/06/12 08:23:57;;;;;;;4.43;1.70;;;29.10;35.00;;;;;;5097844;28;20040;-47
2022/06/12 08:26:27;;;;;;;4.88;1.60;;;29.20;35.80;;;;;;5116727;28;20016;-44
2022/06/12 08:28:55;;;;;;;5.20;1.73;;;29.10;35.10;;;;;;5117062;28;20016;-48
2022/06/12 08:31:26;;;;;;;3.75;1.38;;;29.20;35.00;;;;;;5115223;28;20028;-42
2022/06/12 08:33:53;;;;;;;3.92;1.60;;;29.30;35.10;;;;;;5115846;28;20024;-43
2022/06/12 08:36:19;;;;;;;4.85;1.58;;;29.30;34.90;;;;;;5098218;28;20082;-46
2022/06/12 08:38:47;;;;;;;4.38;1.73;;;29.40;34.80;;;;;;5116814;28;20547;-44
2022/06/12 08:41:29;;;;;;;4.75;1.80;;;29.50;34.90;;;;;;5117443;28;20012;-43
2022/06/12 08:44:10;;;;;;;5.47;1.65;;;29.60;34.70;;;;;;5115954;28;20020;-48
2022/06/12 08:46:43;;;;;;;3.30;1.50;;;29.50;34.70;;;;;;5116261;28;20019;-48
2022/06/12 08:49:33;;;;;;;4.28;1.63;;;29.50;35.00;;;;;;5117894;28;20012;-49
2022/06/12 08:52:11;;;;;;;4.88;1.83;;;29.40;34.90;;;;;;5117109;28;20023;-45
2022/06/12 08:54:42;;;;;;;5.15;1.60;;;29.20;35.10;;;;;;5114788;28;20046;-43
2022/06/12 08:57:11;;;;;;;4.80;1.73;;;29.20;35.30;;;;;;5114184;28;20053;-44
2022/06/12 08:59:59;;;;;;;3.78;1.67;;;29.00;35.30;;;;;;5096395;28;20011;-43
2022/06/12 09:02:26;;;;;;;4.72;1.55;;;29.00;35.70;;;;;;5112945;28;20061;-47
2022/06/12 09:04:53;;;;;;;5.30;1.90;;;29.10;36.10;;;;;;5114397;28;20095;-46
2022/06/12 09:07:27;;;;;;;3.15;1.35;;;29.20;35.40;;;;;;5113947;28;20028;-43
2022/06/12 09:09:55;;;;;;;3.40;1.48;;;29.30;35.30;;;;;;5112656;28;20023;-44
2022/06/12 09:12:41;;;;;;;4.20;1.50;;;29.40;35.20;;;;;;5113559;28;20099;-44
2022/06/12 09:15:34;;;;;;;4.55;1.65;;;29.50;35.10;;;;;;5113214;28;20032;-47
2022/06/12 09:18:31;;;;;;;4.28;1.42;;;29.50;34.90;;;;;;5113841;28;20036;-43
2022/06/12 09:21:41;;;;;;;6.03;1.95;;;29.50;34.80;;;;;;5112477;28;20014;-44
2022/06/12 09:24:32;;;;;;;3.63;1.25;;;29.60;34.80;;;;;;5113523;28;20039;-44
2022/06/12 09:27:02;;;;;;;4.03;1.52;;;29.70;34.80;;;;;;5117650;28;20081;-45
2022/06/12 09:29:53;;;;;;;5.03;1.77;;;29.60;34.70;;;;;;5117186;28;20016;-47
2022/06/12 09:32:26;;;;;;;4.07;1.50;;;29.70;34.60;;;;;;5117217;28;20100;-42
2022/06/12 09:35:16;;;;;;;3.72;1.60;;;29.70;34.60;;;;;;5117346;27;20029;-47
2022/06/12 09:38:18;;;;;;;3.72;1.40;;;29.80;34.50;;;;;;5117188;27;20012;-45
2022/06/12 09:40:59;;;;;;;5.72;1.92;;;29.80;34.50;;;;;;5118688;28;20534;-43
2022/06/12 09:43:42;;;;;;;2.95;1.60;;;29.80;34.50;;;;;;5118571;28;20027;-46
2022/06/12 09:46:31;;;;;;;3.45;1.50;;;29.80;34.50;;;;;;5119607;28;20023;-44
2022/06/12 09:49:08;;;;;;;4.15;1.83;;;29.80;34.50;;;;;;5119858;28;20068;-42
2022/06/12 09:51:59;;;;;;;4.50;1.60;;;29.70;34.50;;;;;;5120047;28;20043;-45
2022/06/12 09:54:37;;;;;;;4.88;1.50;;;29.70;34.50;;;;;;5120181;28;20058;-43
2022/06/12 09:57:17;;;;;;;4.45;1.80;;;29.70;34.50;;;;;;5117865;28;20462;-43
2022/06/12 09:59:58;;;;;;;3.38;1.50;;;29.70;34.60;;;;;;5117547;28;20011;-46
2022/06/12 10:02:51;;;;;;;3.60;1.67;;;29.70;34.60;;;;;;5102119;28;20052;-43
2022/06/12 10:05:19;;;;;;;5.47;1.85;;;29.60;34.70;;;;;;5117322;28;20020;-43
2022/06/12 10:07:46;;;;;;;5.03;1.50;;;29.50;34.80;;;;;;5116626;28;20019;-46
2022/06/12 10:10:19;;;;;;;4.63;1.48;;;29.40;35.00;;;;;;5117517;28;20015;-43
2022/06/12 10:12:46;;;;;;;3.63;1.30;;;29.20;35.10;;;;;;5116931;28;20007;-46
2022/06/12 10:15:25;;;;;;;4.65;1.63;;;29.20;35.20;;;;;;5117652;28;20020;-46
2022/06/12 10:17:58;;;;;;;3.05;1.48;;;29.10;35.30;;;;;;5117483;28;20043;-45
2022/06/12 10:20:38;;;;;;;3.65;1.52;;;29.10;35.50;;;;;;5118269;28;20008;-44
2022/06/12 10:23:04;;;;;;;3.72;1.40;;;28.90;35.50;;;;;;5100952;28;20047;-45
2022/06/12 10:25:33;;;;;;;4.18;1.67;;;28.80;35.70;;;;;;5118522;28;20027;-46
2022/06/12 10:28:32;;;;;;;4.77;1.40;;;28.70;35.80;;;;;;5117890;28;20023;-45
2022/06/12 10:31:00;;;;;;;3.13;1.48;;;28.60;36.00;;;;;;5117824;28;20076;-43
2022/06/12 10:33:31;;;;;;;3.72;1.50;;;28.50;36.20;;;;;;5117992;28;20019;-42
2022/06/12 10:36:02;;;;;;;4.47;1.73;;;28.50;36.20;;;;;;5115941;28;20008;-45
2022/06/12 10:39:08;;;;;;;4.10;1.70;;;28.50;36.20;;;;;;5116806;28;20007;-45
2022/06/12 10:41:45;;;;;;;4.10;1.60;;;28.50;36.20;;;;;;5118145;28;20012;-46
2022/06/12 10:44:31;;;;;;;3.53;1.77;;;28.50;36.10;;;;;;5118076;28;20019;-43
2022/06/12 10:47:08;;;;;;;4.43;1.58;;;28.50;36.00;;;;;;5118706;28;20019;-45
2022/06/12 10:49:34;;;;;;;3.50;1.40;;;28.50;36.00;;;;;;5117479;28;20072;-45
2022/06/12 10:52:05;;;;;;;3.95;1.80;;;28.50;36.10;;;;;;5117931;28;20040;-46
2022/06/12 10:54:31;;;;;;;3.78;1.60;;;28.50;36.10;;;;;;5117521;28;20020;-45
2022/06/12 10:57:25;;;;;;;4.43;1.90;;;28.50;36.20;;;;;;5117989;28;20020;-45
2022/06/12 11:00:08;;;;;;;3.38;1.58;;;28.40;36.20;;;;;;5118831;28;20084;-43
2022/06/12 11:02:37;;;;;;;4.35;1.85;;;28.40;36.30;;;;;;5118554;28;20015;-44
2022/06/12 11:05:28;;;;;;;4.40;1.67;;;28.30;36.30;;;;;;5118729;28;20030;-46
2022/06/12 11:08:32;;;;;;;3.80;1.50;;;28.20;36.50;;;;;;5117458;28;20015;-43
2022/06/12 11:11:03;;;;;;;4.10;1.45;;;28.20;36.40;;;;;;5115932;28;20043;-43
2022/06/12 11:14:19;;;;;;;3.05;1.50;;;28.20;36.50;;;;;;5114798;28;20065;-42
2022/06/12 11:17:02;;;;;;;3.88;1.50;;;28.20;36.60;;;;;;5099358;28;20098;-42
2022/06/12 11:19:53;;;;;;;3.97;1.60;;;28.10;36.50;;;;;;5114495;28;20011;-47
2022/06/12 11:22:25;;;;;;;3.67;1.70;;;28.10;36.70;;;;;;5115405;28;20558;-44
2022/06/12 11:25:03;;;;;;;3.22;1.23;;;28.00;36.70;;;;;;5116080;28;20020;-49
2022/06/12 11:28:00;;;;;;;3.85;1.73;;;28.00;36.80;;;;;;5116232;28;20017;-42
2022/06/12 11:30:50;;;;;;;5.35;1.65;;;27.90;36.90;;;;;;5104876;28;20031;-47
2022/06/12 11:33:48;;;;;;;3.37;1.63;;;27.90;37.00;;;;;;5116372;28;20019;-47
2022/06/12 11:36:43;;;;;;;3.25;1.30;;;27.90;37.10;;;;;;5098978;28;20255;-48
2022/06/12 11:39:27;;;;;;;3.28;1.50;;;27.80;37.10;;;;;;5085269;28;20513;-45
2022/06/12 11:42:10;;;;;;;3.60;1.70;;;27.70;37.10;;;;;;5114765;28;20043;-42
2022/06/12 11:44:54;;;;;;;3.28;1.50;;;27.70;37.10;;;;;;5114491;28;20008;-46
2022/06/12 11:47:48;;;;;;;3.40;1.40;;;27.60;37.10;;;;;;5112731;28;20120;-45
2022/06/12 11:50:19;;;;;;;3.78;1.50;;;27.60;37.10;;;;;;5114938;28;20011;-41
2022/06/12 11:53:03;;;;;;;3.13;1.38;;;27.60;37.20;;;;;;5114712;28;20008;-43
2022/06/12 11:55:59;;;;;;;3.15;1.52;;;27.50;37.30;;;;;;5114399;28;20042;-42
2022/06/12 11:58:49;;;;;;;4.57;1.73;;;27.50;37.30;;;;;;5111157;28;20024;-42
2022/06/12 12:01:43;;;;;;;5.20;1.67;;;27.50;37.40;;;;;;5114103;28;20015;-41
2022/06/12 12:04:43;;;;;;;3.45;1.60;;;27.50;37.60;;;;;;5114771;28;20038;-46
2022/06/12 12:07:52;;;;;;;3.45;1.40;;;27.40;37.60;;;;;;5114038;28;20023;-41
2022/06/12 12:11:02;;;;;;;4.05;1.75;;;27.40;37.60;;;;;;5112984;28;20095;-43
2022/06/12 12:13:31;;;;;;;2.35;1.20;;;27.40;37.60;;;;;;5096866;28;20490;-44
2022/06/12 12:16:04;;;;;;;3.88;1.77;;;27.30;37.70;;;;;;5113328;28;20012;-42
2022/06/12 12:18:48;;;;;;;3.33;1.30;;;27.30;37.80;;;;;;5113337;28;20015;-41
2022/06/12 12:21:32;;;;;;;3.47;1.42;;;27.30;37.80;;;;;;5112839;28;20007;-41
2022/06/12 12:24:03;;;;;;;3.53;1.88;;;27.30;37.80;;;;;;5098034;28;20134;-40
2022/06/12 12:26:35;;;;;;;3.03;1.50;;;27.30;37.90;;;;;;5112866;28;20403;-41
2022/06/12 12:29:12;;;;;;;2.83;1.50;;;27.30;37.90;;;;;;5114108;28;20011;-41
2022/06/12 12:31:38;;;;;;;3.30;1.40;;;27.20;37.80;;;;;;5114047;28;20477;-43
2022/06/12 12:34:06;;;;;;;3.72;1.55;;;27.20;37.90;;;;;;5114111;28;20024;-41
2022/06/12 12:42:17;;;;;;;2.97;1.30;;;27.20;37.90;;;;;;5114507;28;20049;-42
2022/06/12 12:44:46;;;;;;;3.50;1.70;;;27.10;37.80;;;;;;5112896;28;20019;-41
2022/06/12 12:47:27;;;;;;;3.10;1.60;;;27.20;37.90;;;;;;5114343;28;20015;-47
2022/06/12 12:50:14;;;;;;;2.90;1.58;;;27.20;38.00;;;;;;5114286;28;20016;-45
2022/06/12 12:52:55;;;;;;;3.13;1.30;;;27.10;38.00;;;;;;5114406;28;20018;-40
2022/06/12 12:55:23;;;;;;;3.25;1.33;;;27.10;37.90;;;;;;5113695;28;20028;-45
2022/06/12 12:57:49;;;;;;;3.58;1.42;;;27.10;37.90;;;;;;5114048;28;20008;-41
2022/06/12 13:00:15;;;;;;;3.42;1.50;;;27.10;37.90;;;;;;5118020;28;20083;-41
2022/06/12 13:02:53;;;;;;;2.58;1.40;;;27.10;37.80;;;;;;5119500;28;20066;-42
2022/06/12 13:05:33;;;;;;;3.05;1.40;;;27.10;37.80;;;;;;5119541;28;20024;-40
2022/06/12 13:08:08;;;;;;;;;;;27.10;37.90;;;;;;5120226;28;20038;-45
2022/06/12 13:10:34;;;;;;;2.20;1.30;;;27.10;37.90;;;;;;5119467;28;19900;-41
2022/06/12 13:13:16;;;;;;;3.40;1.50;;;27.10;38.00;;;;;;5119547;28;20066;-42
2022/06/12 13:15:48;;;;;;;2.80;1.33;;;27.10;38.00;;;;;;5119165;28;20084;-42
2022/06/12 13:18:33;;;;;;;2.95;1.40;;;27.10;37.90;;;;;;5118579;28;20019;-40
2022/06/12 13:21:14;;;;;;;2.70;1.40;;;27.00;37.90;;;;;;5119651;28;20050;-41
2022/06/12 13:23:55;;;;;;;2.83;1.33;;;27.00;37.80;;;;;;5101231;28;20041;-45
2022/06/12 13:26:21;;;;;;;2.13;1.20;;;27.00;37.90;;;;;;5117200;28;20055;-45
2022/06/12 13:28:55;;;;;;;3.58;1.42;;;27.00;37.90;;;;;;5118535;28;20019;-41
2022/06/12 13:31:21;;;;;;;3.13;1.13;;;27.00;38.00;;;;;;5117558;28;20470;-41
2022/06/12 13:33:57;;;;;;;2.47;1.30;;;27.00;38.00;;;;;;5117872;28;20020;-47
2022/06/12 13:36:44;;;;;;;2.45;1.33;;;27.00;38.00;;;;;;5119239;28;20034;-43